Time;durP1;ratioP1;P1;durP2;ratioP2;P2;SDS_P1;SDS_P2;PMS_P1;PMS_P2;Temp;Humidity;BMP_temperature;BMP_pressure;BME280_temperature;BME280_humidity;BME280_pressure;Samples;Min_cycle;Max_cycle;Signal;HPM_P1;HPM_P2
2022/06/23 00:00:23;;;;;;;12.25;8.6;;;;;;;19.18;77.44531;95019.65;;;;
2022/06/23 00:01:28;;;;;;;12.25;8.6;;;;;;;19.18;77.44531;95019.65;;;;
2022/06/23 00:02:40;;;;;;;12.25;8.6;;;;;;;19.18;77.44531;95019.65;;;;
2022/06/23 00:03:40;;;;;;;12.25;8.6;;;;;;;19.18;77.44531;95019.65;;;;
2022/06/23 00:04:41;;;;;;;12.25;8.6;;;;;;;19.18;77.44531;95019.65;;;;
2022/06/23 00:05:44;;;;;;;12.5;8.799999;;;;;;;19.16;77.70605;95045.92;;;;
2022/06/23 00:06:52;;;;;;;12.5;8.799999;;;;;;;19.16;77.70605;95045.92;;;;
2022/06/23 00:07:55;;;;;;;12.5;8.799999;;;;;;;19.16;77.70605;95045.92;;;;
2022/06/23 00:08:58;;;;;;;12.5;8.799999;;;;;;;19.16;77.70605;95045.92;;;;
2022/06/23 00:09:59;;;;;;;12.5;8.799999;;;;;;;19.16;77.70605;95045.92;;;;
2022/06/23 00:11:01;;;;;;;12.5;8.799999;;;;;;;19.16;77.70605;95045.92;;;;
2022/06/23 00:12:01;;;;;;;12.5;8.799999;;;;;;;19.16;77.70605;95045.92;;;;
2022/06/23 00:13:15;;;;;;;12.5;8.799999;;;;;;;19.16;77.70605;95045.92;;;;
2022/06/23 00:14:22;;;;;;;12.5;8.799999;;;;;;;19.16;77.70605;95045.92;;;;
2022/06/23 00:15:26;;;;;;;12.5;8.799999;;;;;;;19.16;77.70605;95045.92;;;;
2022/06/23 00:16:29;;;;;;;13.35;8.25;;;;;;;19.11;77.94824;95056.27;;;;
2022/06/23 00:17:30;;;;;;;13.35;8.25;;;;;;;19.11;77.94824;95056.27;;;;
2022/06/23 00:18:33;;;;;;;13.35;8.25;;;;;;;19.11;77.94824;95056.27;;;;
2022/06/23 00:19:36;;;;;;;13.35;8.25;;;;;;;19.11;77.94824;95056.27;;;;
2022/06/23 00:20:37;;;;;;;13.35;8.25;;;;;;;19.11;77.94824;95056.27;;;;
2022/06/23 00:21:44;;;;;;;13.35;8.25;;;;;;;19.11;77.94824;95056.27;;;;
2022/06/23 00:22:49;;;;;;;13.35;8.25;;;;;;;19.11;77.94824;95056.27;;;;
2022/06/23 00:23:53;;;;;;;13.35;8.25;;;;;;;19.11;77.94824;95056.27;;;;
2022/06/23 00:24:59;;;;;;;13.35;8.25;;;;;;;19.11;77.94824;95056.27;;;;
2022/06/23 00:26:03;;;;;;;13.35;8.25;;;;;;;19.11;77.94824;95056.27;;;;
2022/06/23 00:27:07;;;;;;;13.6;8.599999;;;;;;;19.14;78.15039;95045.53;;;;
2022/06/23 00:28:14;;;;;;;13.6;8.599999;;;;;;;19.14;78.15039;95045.53;;;;
2022/06/23 00:29:19;;;;;;;13.6;8.599999;;;;;;;19.14;78.15039;95045.53;;;;
2022/06/23 00:30:23;;;;;;;13.6;8.599999;;;;;;;19.14;78.15039;95045.53;;;;
2022/06/23 00:31:27;;;;;;;13.6;8.599999;;;;;;;19.14;78.15039;95045.53;;;;
2022/06/23 00:32:30;;;;;;;13.6;8.599999;;;;;;;19.14;78.15039;95045.53;;;;
2022/06/23 00:33:31;;;;;;;13.6;8.599999;;;;;;;19.14;78.15039;95045.53;;;;
2022/06/23 00:34:38;;;;;;;13.6;8.599999;;;;;;;19.14;78.15039;95045.53;;;;
2022/06/23 00:35:41;;;;;;;13.6;8.599999;;;;;;;19.14;78.15039;95045.53;;;;
2022/06/23 00:36:43;;;;;;;13.6;8.599999;;;;;;;19.14;78.15039;95045.53;;;;
2022/06/23 00:37:49;;;;;;;14.85;8.65;;;;;;;19.08;78.29395;95046.47;;;;
2022/06/23 00:38:51;;;;;;;14.85;8.65;;;;;;;19.08;78.29395;95046.47;;;;
2022/06/23 00:39:52;;;;;;;14.85;8.65;;;;;;;19.08;78.29395;95046.47;;;;
2022/06/23 00:40:56;;;;;;;14.85;8.65;;;;;;;19.08;78.29395;95046.47;;;;
2022/06/23 00:41:59;;;;;;;14.85;8.65;;;;;;;19.08;78.29395;95046.47;;;;
2022/06/23 00:43:02;;;;;;;14.85;8.65;;;;;;;19.08;78.29395;95046.47;;;;
2022/06/23 00:44:04;;;;;;;14.85;8.65;;;;;;;19.08;78.29395;95046.47;;;;
2022/06/23 00:45:08;;;;;;;14.85;8.65;;;;;;;19.08;78.29395;95046.47;;;;
2022/06/23 00:46:21;;;;;;;14.85;8.65;;;;;;;19.08;78.29395;95046.47;;;;
2022/06/23 00:47:26;;;;;;;13.7;8.599999;;;;;;;19.11;78.49414;95067.52;;;;
2022/06/23 00:48:31;;;;;;;13.7;8.599999;;;;;;;19.11;78.49414;95067.52;;;;
2022/06/23 00:49:39;;;;;;;13.7;8.599999;;;;;;;19.11;78.49414;95067.52;;;;
2022/06/23 00:50:48;;;;;;;13.7;8.599999;;;;;;;19.11;78.49414;95067.52;;;;
2022/06/23 00:51:55;;;;;;;13.7;8.599999;;;;;;;19.11;78.49414;95067.52;;;;
2022/06/23 00:53:01;;;;;;;13.7;8.599999;;;;;;;19.11;78.49414;95067.52;;;;
2022/06/23 00:54:14;;;;;;;13.7;8.599999;;;;;;;19.11;78.49414;95067.52;;;;
2022/06/23 00:55:21;;;;;;;13.7;8.599999;;;;;;;19.11;78.49414;95067.52;;;;
2022/06/23 00:56:37;;;;;;;13.7;8.599999;;;;;;;19.11;78.49414;95067.52;;;;
2022/06/23 00:57:46;;;;;;;13.7;8.599999;;;;;;;19.11;78.49414;95067.52;;;;
2022/06/23 00:58:52;;;;;;;11.6;7.8;;;;;;;19.07;78.63184;95064.56;;;;
2022/06/23 00:59:58;;;;;;;11.6;7.8;;;;;;;19.07;78.63184;95064.56;;;;
2022/06/23 01:01:06;;;;;;;11.6;7.8;;;;;;;19.07;78.63184;95064.56;;;;
2022/06/23 01:02:16;;;;;;;11.6;7.8;;;;;;;19.07;78.63184;95064.56;;;;
2022/06/23 01:03:22;;;;;;;11.6;7.8;;;;;;;19.07;78.63184;95064.56;;;;
2022/06/23 01:04:29;;;;;;;11.6;7.8;;;;;;;19.07;78.63184;95064.56;;;;
2022/06/23 01:05:41;;;;;;;11.6;7.8;;;;;;;19.07;78.63184;95064.56;;;;
2022/06/23 01:06:48;;;;;;;11.6;7.8;;;;;;;19.07;78.63184;95064.56;;;;
2022/06/23 01:07:53;;;;;;;11.6;7.8;;;;;;;19.07;78.63184;95064.56;;;;
2022/06/23 01:09:00;;;;;;;11.1;8.000001;;;;;;;19.09;78.74414;95084.8;;;;
2022/06/23 01:10:11;;;;;;;11.1;8.000001;;;;;;;19.09;78.74414;95084.8;;;;
2022/06/23 01:11:20;;;;;;;11.1;8.000001;;;;;;;19.09;78.74414;95084.8;;;;
2022/06/23 01:12:29;;;;;;;11.1;8.000001;;;;;;;19.09;78.74414;95084.8;;;;
2022/06/23 01:13:36;;;;;;;11.1;8.000001;;;;;;;19.09;78.74414;95084.8;;;;
2022/06/23 01:14:41;;;;;;;11.1;8.000001;;;;;;;19.09;78.74414;95084.8;;;;
2022/06/23 01:15:48;;;;;;;11.1;8.000001;;;;;;;19.09;78.74414;95084.8;;;;
2022/06/23 01:16:52;;;;;;;11.1;8.000001;;;;;;;19.09;78.74414;95084.8;;;;
2022/06/23 01:17:56;;;;;;;11.1;8.000001;;;;;;;19.09;78.74414;95084.8;;;;
2022/06/23 01:19:03;;;;;;;11.1;8.000001;;;;;;;19.09;78.74414;95084.8;;;;
2022/06/23 01:20:37;;;;;;;13.05;7.749999;;;;;;;19.07;78.76172;95085.19;;;;
2022/06/23 01:21:48;;;;;;;13.05;7.749999;;;;;;;19.07;78.76172;95085.19;;;;
2022/06/23 01:22:55;;;;;;;13.05;7.749999;;;;;;;19.07;78.76172;95085.19;;;;
2022/06/23 01:24:08;;;;;;;13.05;7.749999;;;;;;;19.07;78.76172;95085.19;;;;
2022/06/23 01:25:23;;;;;;;13.05;7.749999;;;;;;;19.07;78.76172;95085.19;;;;
2022/06/23 01:26:37;;;;;;;13.05;7.749999;;;;;;;19.07;78.76172;95085.19;;;;
2022/06/23 01:27:52;;;;;;;13.05;7.749999;;;;;;;19.07;78.76172;95085.19;;;;
2022/06/23 01:29:00;;;;;;;13.05;7.749999;;;;;;;19.07;78.76172;95085.19;;;;
2022/06/23 01:30:07;;;;;;;11.7;6.750001;;;;;;;19.04;78.82227;95087.48;;;;
2022/06/23 01:31:12;;;;;;;11.7;6.750001;;;;;;;19.04;78.82227;95087.48;;;;
2022/06/23 01:32:16;;;;;;;11.7;6.750001;;;;;;;19.04;78.82227;95087.48;;;;
2022/06/23 01:33:22;;;;;;;11.7;6.750001;;;;;;;19.04;78.82227;95087.48;;;;
2022/06/23 01:34:30;;;;;;;11.7;6.750001;;;;;;;19.04;78.82227;95087.48;;;;
2022/06/23 01:35:43;;;;;;;11.7;6.750001;;;;;;;19.04;78.82227;95087.48;;;;
2022/06/23 01:36:52;;;;;;;11.7;6.750001;;;;;;;19.04;78.82227;95087.48;;;;
2022/06/23 01:37:59;;;;;;;11.7;6.750001;;;;;;;19.04;78.82227;95087.48;;;;
2022/06/23 01:39:03;;;;;;;11.7;6.750001;;;;;;;19.04;78.82227;95087.48;;;;
2022/06/23 01:40:11;;;;;;;11.7;6.750001;;;;;;;19.04;78.82227;95087.48;;;;
2022/06/23 01:41:19;;;;;;;11.3;7.1;;;;;;;18.9;78.83203;95089.87;;;;
2022/06/23 01:42:24;;;;;;;11.3;7.1;;;;;;;18.9;78.83203;95089.87;;;;
2022/06/23 01:43:34;;;;;;;11.3;7.1;;;;;;;18.9;78.83203;95089.87;;;;
2022/06/23 01:44:38;;;;;;;11.3;7.1;;;;;;;18.9;78.83203;95089.87;;;;
2022/06/23 01:45:47;;;;;;;11.3;7.1;;;;;;;18.9;78.83203;95089.87;;;;
2022/06/23 01:46:55;;;;;;;11.3;7.1;;;;;;;18.9;78.83203;95089.87;;;;
2022/06/23 01:47:57;;;;;;;11.3;7.1;;;;;;;18.9;78.83203;95089.87;;;;
2022/06/23 01:49:05;;;;;;;11.3;7.1;;;;;;;18.9;78.83203;95089.87;;;;
2022/06/23 01:50:15;;;;;;;11.3;7.1;;;;;;;18.9;78.83203;95089.87;;;;
2022/06/23 01:51:37;;;;;;;11.35;6.6;;;;;;;18.86;78.96777;95092.85;;;;
2022/06/23 01:52:41;;;;;;;11.35;6.6;;;;;;;18.86;78.96777;95092.85;;;;
2022/06/23 01:53:45;;;;;;;11.35;6.6;;;;;;;18.86;78.96777;95092.85;;;;
2022/06/23 01:54:45;;;;;;;11.35;6.6;;;;;;;18.86;78.96777;95092.85;;;;
2022/06/23 01:55:51;;;;;;;11.35;6.6;;;;;;;18.86;78.96777;95092.85;;;;
2022/06/23 01:57:17;;;;;;;11.35;6.6;;;;;;;18.86;78.96777;95092.85;;;;
2022/06/23 01:58:26;;;;;;;11.35;6.6;;;;;;;18.86;78.96777;95092.85;;;;
2022/06/23 01:59:42;;;;;;;11.35;6.6;;;;;;;18.86;78.96777;95092.85;;;;
2022/06/23 02:00:53;;;;;;;11.35;6.6;;;;;;;18.86;78.96777;95092.85;;;;
2022/06/23 02:01:58;;;;;;;11.35;6.6;;;;;;;18.86;78.96777;95092.85;;;;
2022/06/23 02:03:11;;;;;;;13.05;6.6;;;;;;;18.85;79.07422;95092.7;;;;
2022/06/23 02:04:20;;;;;;;13.05;6.6;;;;;;;18.85;79.07422;95092.7;;;;
2022/06/23 02:05:32;;;;;;;13.05;6.6;;;;;;;18.85;79.07422;95092.7;;;;
2022/06/23 02:06:40;;;;;;;13.05;6.6;;;;;;;18.85;79.07422;95092.7;;;;
2022/06/23 02:07:49;;;;;;;13.05;6.6;;;;;;;18.85;79.07422;95092.7;;;;
2022/06/23 02:08:57;;;;;;;13.05;6.6;;;;;;;18.85;79.07422;95092.7;;;;
2022/06/23 02:10:07;;;;;;;13.05;6.6;;;;;;;18.85;79.07422;95092.7;;;;
2022/06/23 02:11:18;;;;;;;13.05;6.6;;;;;;;18.85;79.07422;95092.7;;;;
2022/06/23 02:12:25;;;;;;;13.05;6.6;;;;;;;18.85;79.07422;95092.7;;;;
2022/06/23 02:13:33;;;;;;;13.4;7.15;;;;;;;18.91;79.15137;95096.04;;;;
2022/06/23 02:14:42;;;;;;;13.4;7.15;;;;;;;18.91;79.15137;95096.04;;;;
2022/06/23 02:15:51;;;;;;;13.4;7.15;;;;;;;18.91;79.15137;95096.04;;;;
2022/06/23 02:17:01;;;;;;;13.4;7.15;;;;;;;18.91;79.15137;95096.04;;;;
2022/06/23 02:18:15;;;;;;;13.4;7.15;;;;;;;18.91;79.15137;95096.04;;;;
2022/06/23 02:19:23;;;;;;;13.4;7.15;;;;;;;18.91;79.15137;95096.04;;;;
2022/06/23 02:20:40;;;;;;;13.4;7.15;;;;;;;18.91;79.15137;95096.04;;;;
2022/06/23 02:21:47;;;;;;;13.4;7.15;;;;;;;18.91;79.15137;95096.04;;;;
2022/06/23 02:22:52;;;;;;;13.4;7.15;;;;;;;18.91;79.15137;95096.04;;;;
2022/06/23 02:24:02;;;;;;;15.85;7.4;;;;;;;18.88;79.19922;95096.18;;;;
2022/06/23 02:25:13;;;;;;;15.85;7.4;;;;;;;18.88;79.19922;95096.18;;;;
2022/06/23 02:26:19;;;;;;;15.85;7.4;;;;;;;18.88;79.19922;95096.18;;;;
2022/06/23 02:27:25;;;;;;;15.85;7.4;;;;;;;18.88;79.19922;95096.18;;;;
2022/06/23 02:28:32;;;;;;;15.85;7.4;;;;;;;18.88;79.19922;95096.18;;;;
2022/06/23 02:29:40;;;;;;;15.85;7.4;;;;;;;18.88;79.19922;95096.18;;;;
2022/06/23 02:30:45;;;;;;;15.85;7.4;;;;;;;18.88;79.19922;95096.18;;;;
2022/06/23 02:31:50;;;;;;;15.85;7.4;;;;;;;18.88;79.19922;95096.18;;;;
2022/06/23 02:32:59;;;;;;;15.85;7.4;;;;;;;18.88;79.19922;95096.18;;;;
2022/06/23 02:34:05;;;;;;;15.85;7.4;;;;;;;18.88;79.19922;95096.18;;;;
2022/06/23 02:35:12;;;;;;;14.15;7.5;;;;;;;18.86;79.39258;95107.69;;;;
2022/06/23 02:36:23;;;;;;;14.15;7.5;;;;;;;18.86;79.39258;95107.69;;;;
2022/06/23 02:37:36;;;;;;;14.15;7.5;;;;;;;18.86;79.39258;95107.69;;;;
2022/06/23 02:38:59;;;;;;;14.15;7.5;;;;;;;18.86;79.39258;95107.69;;;;
2022/06/23 02:40:02;;;;;;;14.15;7.5;;;;;;;18.86;79.39258;95107.69;;;;
2022/06/23 02:41:04;;;;;;;14.15;7.5;;;;;;;18.86;79.39258;95107.69;;;;
2022/06/23 02:42:12;;;;;;;14.15;7.5;;;;;;;18.86;79.39258;95107.69;;;;
2022/06/23 02:43:25;;;;;;;14.15;7.5;;;;;;;18.86;79.39258;95107.69;;;;
2022/06/23 02:44:29;;;;;;;14.15;7.5;;;;;;;18.86;79.39258;95107.69;;;;
2022/06/23 02:45:47;;;;;;;14.55;7.15;;;;;;;18.81;79.52734;95122.3;;;;
2022/06/23 02:47:04;;;;;;;14.55;7.15;;;;;;;18.81;79.52734;95122.3;;;;
2022/06/23 02:48:21;;;;;;;14.55;7.15;;;;;;;18.81;79.52734;95122.3;;;;
2022/06/23 02:49:40;;;;;;;14.55;7.15;;;;;;;18.81;79.52734;95122.3;;;;
2022/06/23 02:51:00;;;;;;;14.55;7.15;;;;;;;18.81;79.52734;95122.3;;;;
2022/06/23 02:52:13;;;;;;;14.55;7.15;;;;;;;18.81;79.52734;95122.3;;;;
2022/06/23 02:53:51;;;;;;;14.55;7.15;;;;;;;18.81;79.52734;95122.3;;;;
2022/06/23 02:55:12;;;;;;;14.55;7.15;;;;;;;18.81;79.52734;95122.3;;;;
2022/06/23 02:56:41;;;;;;;14.55;7.15;;;;;;;18.81;79.52734;95122.3;;;;
2022/06/23 02:58:07;;;;;;;14.55;7.15;;;;;;;18.81;79.52734;95122.3;;;;
2022/06/23 02:59:13;;;;;;;14.55;7.15;;;;;;;18.81;79.52734;95122.3;;;;
2022/06/23 03:00:20;;;;;;;14.55;7.15;;;;;;;18.81;79.52734;95122.3;;;;
2022/06/23 03:01:27;;;;;;;14.55;7.15;;;;;;;18.81;79.52734;95122.3;;;;
2022/06/23 03:02:35;;;;;;;14.55;7.15;;;;;;;18.81;79.52734;95122.3;;;;
2022/06/23 03:03:41;;;;;;;14.55;7.15;;;;;;;18.81;79.52734;95122.3;;;;
2022/06/23 03:04:48;;;;;;;14.55;7.15;;;;;;;18.81;79.52734;95122.3;;;;
2022/06/23 03:05:53;;;;;;;14.55;7.15;;;;;;;18.81;79.52734;95122.3;;;;
2022/06/23 03:06:57;;;;;;;14.55;6.95;;;;;;;18.76;79.65918;95138.48;;;;
2022/06/23 03:08:03;;;;;;;14.55;6.95;;;;;;;18.76;79.65918;95138.48;;;;
2022/06/23 03:09:11;;;;;;;14.55;6.95;;;;;;;18.76;79.65918;95138.48;;;;
2022/06/23 03:10:18;;;;;;;14.55;6.95;;;;;;;18.76;79.65918;95138.48;;;;
2022/06/23 03:11:51;;;;;;;14.55;6.95;;;;;;;18.76;79.65918;95138.48;;;;
2022/06/23 03:12:59;;;;;;;14.55;6.95;;;;;;;18.76;79.65918;95138.48;;;;
2022/06/23 03:14:07;;;;;;;14.55;6.95;;;;;;;18.76;79.65918;95138.48;;;;
2022/06/23 03:15:15;;;;;;;14.55;6.95;;;;;;;18.76;79.65918;95138.48;;;;
2022/06/23 03:16:29;;;;;;;14.55;6.95;;;;;;;18.76;79.65918;95138.48;;;;
2022/06/23 03:17:34;;;;;;;15.1;7.25;;;;;;;18.71;79.81543;95144.23;;;;
2022/06/23 03:18:40;;;;;;;15.1;7.25;;;;;;;18.71;79.81543;95144.23;;;;
2022/06/23 03:19:49;;;;;;;15.1;7.25;;;;;;;18.71;79.81543;95144.23;;;;
2022/06/23 03:21:00;;;;;;;15.1;7.25;;;;;;;18.71;79.81543;95144.23;;;;
2022/06/23 03:22:04;;;;;;;15.1;7.25;;;;;;;18.71;79.81543;95144.23;;;;
2022/06/23 03:23:10;;;;;;;15.1;7.25;;;;;;;18.71;79.81543;95144.23;;;;
2022/06/23 03:24:17;;;;;;;15.1;7.25;;;;;;;18.71;79.81543;95144.23;;;;
2022/06/23 03:25:25;;;;;;;15.1;7.25;;;;;;;18.71;79.81543;95144.23;;;;
2022/06/23 03:26:31;;;;;;;15.1;7.25;;;;;;;18.71;79.81543;95144.23;;;;
2022/06/23 03:27:38;;;;;;;15.95;7.75;;;;;;;18.57;79.97754;95152.4;;;;
2022/06/23 03:28:48;;;;;;;15.95;7.75;;;;;;;18.57;79.97754;95152.4;;;;
2022/06/23 03:29:53;;;;;;;15.95;7.75;;;;;;;18.57;79.97754;95152.4;;;;
2022/06/23 03:30:59;;;;;;;15.95;7.75;;;;;;;18.57;79.97754;95152.4;;;;
2022/06/23 03:32:05;;;;;;;15.95;7.75;;;;;;;18.57;79.97754;95152.4;;;;
2022/06/23 03:33:10;;;;;;;15.95;7.75;;;;;;;18.57;79.97754;95152.4;;;;
2022/06/23 03:34:19;;;;;;;15.95;7.75;;;;;;;18.57;79.97754;95152.4;;;;
2022/06/23 03:35:25;;;;;;;15.95;7.75;;;;;;;18.57;79.97754;95152.4;;;;
2022/06/23 03:36:32;;;;;;;15.95;7.75;;;;;;;18.57;79.97754;95152.4;;;;
2022/06/23 03:37:39;;;;;;;15.95;7.75;;;;;;;18.57;79.97754;95152.4;;;;
2022/06/23 03:44:09;;;;;;;11.6;7.45;;;;;;;18.48;80.22266;95149.95;;;;
2022/06/23 03:45:20;;;;;;;11.6;7.45;;;;;;;18.48;80.22266;95149.95;;;;
2022/06/23 03:46:30;;;;;;;11.6;7.45;;;;;;;18.48;80.22266;95149.95;;;;
2022/06/23 03:47:35;;;;;;;11.6;7.45;;;;;;;18.48;80.22266;95149.95;;;;
2022/06/23 03:48:44;;;;;;;11.6;7.45;;;;;;;18.48;80.22266;95149.95;;;;
2022/06/23 03:49:52;;;;;;;14.35;7.4;;;;;;;18.4;80.31738;95162.66;;;;
2022/06/23 03:50:58;;;;;;;14.35;7.4;;;;;;;18.4;80.31738;95162.66;;;;
2022/06/23 03:52:03;;;;;;;14.35;7.4;;;;;;;18.4;80.31738;95162.66;;;;
2022/06/23 03:53:14;;;;;;;14.35;7.4;;;;;;;18.4;80.31738;95162.66;;;;
2022/06/23 03:54:18;;;;;;;14.35;7.4;;;;;;;18.4;80.31738;95162.66;;;;
2022/06/23 03:55:22;;;;;;;14.35;7.4;;;;;;;18.4;80.31738;95162.66;;;;
2022/06/23 03:56:27;;;;;;;14.35;7.4;;;;;;;18.4;80.31738;95162.66;;;;
2022/06/23 03:57:34;;;;;;;14.35;7.4;;;;;;;18.4;80.31738;95162.66;;;;
2022/06/23 03:58:41;;;;;;;14.35;7.4;;;;;;;18.4;80.31738;95162.66;;;;
2022/06/23 03:59:48;;;;;;;13.45;7.5;;;;;;;18.39;80.5127;95178.83;;;;
2022/06/23 04:01:00;;;;;;;13.45;7.5;;;;;;;18.39;80.5127;95178.83;;;;
2022/06/23 04:02:07;;;;;;;13.45;7.5;;;;;;;18.39;80.5127;95178.83;;;;
2022/06/23 04:03:14;;;;;;;13.45;7.5;;;;;;;18.39;80.5127;95178.83;;;;
2022/06/23 04:04:24;;;;;;;13.45;7.5;;;;;;;18.39;80.5127;95178.83;;;;
2022/06/23 04:05:42;;;;;;;13.45;7.5;;;;;;;18.39;80.5127;95178.83;;;;
2022/06/23 04:07:12;;;;;;;13.45;7.5;;;;;;;18.39;80.5127;95178.83;;;;
2022/06/23 04:08:49;;;;;;;13.45;7.5;;;;;;;18.39;80.5127;95178.83;;;;
2022/06/23 04:09:58;;;;;;;13.45;7.5;;;;;;;18.39;80.5127;95178.83;;;;
2022/06/23 04:11:43;;;;;;;15.4;7.849999;;;;;;;18.37;80.60547;95168.48;;;;
2022/06/23 04:13:05;;;;;;;15.4;7.849999;;;;;;;18.37;80.60547;95168.48;;;;
2022/06/23 04:14:13;;;;;;;15.4;7.849999;;;;;;;18.37;80.60547;95168.48;;;;
2022/06/23 04:15:30;;;;;;;15.4;7.849999;;;;;;;18.37;80.60547;95168.48;;;;
2022/06/23 04:16:36;;;;;;;15.4;7.849999;;;;;;;18.37;80.60547;95168.48;;;;
2022/06/23 04:17:38;;;;;;;15.4;7.849999;;;;;;;18.37;80.60547;95168.48;;;;
2022/06/23 04:18:44;;;;;;;15.4;7.849999;;;;;;;18.37;80.60547;95168.48;;;;
2022/06/23 04:19:46;;;;;;;15.4;7.849999;;;;;;;18.37;80.60547;95168.48;;;;
2022/06/23 04:20:50;;;;;;;15.4;7.849999;;;;;;;18.37;80.60547;95168.48;;;;
2022/06/23 04:21:58;;;;;;;12.65;7.95;;;;;;;18.31;80.71777;95160.99;;;;
2022/06/23 04:23:04;;;;;;;12.65;7.95;;;;;;;18.31;80.71777;95160.99;;;;
2022/06/23 04:24:12;;;;;;;12.65;7.95;;;;;;;18.31;80.71777;95160.99;;;;
2022/06/23 04:25:17;;;;;;;12.65;7.95;;;;;;;18.31;80.71777;95160.99;;;;
2022/06/23 04:26:21;;;;;;;12.65;7.95;;;;;;;18.31;80.71777;95160.99;;;;
2022/06/23 04:27:28;;;;;;;12.65;7.95;;;;;;;18.31;80.71777;95160.99;;;;
2022/06/23 04:28:39;;;;;;;12.65;7.95;;;;;;;18.31;80.71777;95160.99;;;;
2022/06/23 04:29:43;;;;;;;12.65;7.95;;;;;;;18.31;80.71777;95160.99;;;;
2022/06/23 04:30:48;;;;;;;12.65;7.95;;;;;;;18.31;80.71777;95160.99;;;;
2022/06/23 04:31:50;;;;;;;12.25;8;;;;;;;18.21;80.88477;95174.73;;;;
2022/06/23 04:32:56;;;;;;;12.25;8;;;;;;;18.21;80.88477;95174.73;;;;
2022/06/23 04:34:00;;;;;;;12.25;8;;;;;;;18.21;80.88477;95174.73;;;;
2022/06/23 04:35:02;;;;;;;12.25;8;;;;;;;18.21;80.88477;95174.73;;;;
2022/06/23 04:36:11;;;;;;;12.25;8;;;;;;;18.21;80.88477;95174.73;;;;
2022/06/23 04:37:19;;;;;;;12.25;8;;;;;;;18.21;80.88477;95174.73;;;;
2022/06/23 04:38:28;;;;;;;12.25;8;;;;;;;18.21;80.88477;95174.73;;;;
2022/06/23 04:39:33;;;;;;;12.25;8;;;;;;;18.21;80.88477;95174.73;;;;
2022/06/23 04:40:40;;;;;;;12.25;8;;;;;;;18.21;80.88477;95174.73;;;;
2022/06/23 04:41:48;;;;;;;12.25;8;;;;;;;18.21;80.88477;95174.73;;;;
2022/06/23 04:42:57;;;;;;;12.2;7.249999;;;;;;;18.25;81.04492;95181.15;;;;
2022/06/23 04:44:03;;;;;;;12.2;7.249999;;;;;;;18.25;81.04492;95181.15;;;;
2022/06/23 04:45:12;;;;;;;12.2;7.249999;;;;;;;18.25;81.04492;95181.15;;;;
2022/06/23 04:47:26;;;;;;;12.2;7.249999;;;;;;;18.25;81.04492;95181.15;;;;
2022/06/23 04:48:30;;;;;;;12.2;7.249999;;;;;;;18.25;81.04492;95181.15;;;;
2022/06/23 04:49:40;;;;;;;12.2;7.249999;;;;;;;18.25;81.04492;95181.15;;;;
2022/06/23 04:50:44;;;;;;;12.2;7.249999;;;;;;;18.25;81.04492;95181.15;;;;
2022/06/23 04:51:53;;;;;;;12.2;7.249999;;;;;;;18.25;81.04492;95181.15;;;;
2022/06/23 04:52:58;;;;;;;13.75;7.25;;;;;;;18.32;81.0127;95168.86;;;;
2022/06/23 04:54:00;;;;;;;13.75;7.25;;;;;;;18.32;81.0127;95168.86;;;;
2022/06/23 04:55:07;;;;;;;13.75;7.25;;;;;;;18.32;81.0127;95168.86;;;;
2022/06/23 04:56:12;;;;;;;13.75;7.25;;;;;;;18.32;81.0127;95168.86;;;;
2022/06/23 04:57:24;;;;;;;13.75;7.25;;;;;;;18.32;81.0127;95168.86;;;;
2022/06/23 04:58:30;;;;;;;13.75;7.25;;;;;;;18.32;81.0127;95168.86;;;;
2022/06/23 04:59:35;;;;;;;13.75;7.25;;;;;;;18.32;81.0127;95168.86;;;;
2022/06/23 05:00:39;;;;;;;13.75;7.25;;;;;;;18.32;81.0127;95168.86;;;;
2022/06/23 05:01:44;;;;;;;13.75;7.25;;;;;;;18.32;81.0127;95168.86;;;;
2022/06/23 05:02:48;;;;;;;13.75;7.25;;;;;;;18.32;81.0127;95168.86;;;;
2022/06/23 05:03:54;;;;;;;14.25;7.4;;;;;;;18.56;80.89453;95161.08;;;;
2022/06/23 05:04:58;;;;;;;14.25;7.4;;;;;;;18.56;80.89453;95161.08;;;;
2022/06/23 05:06:04;;;;;;;14.25;7.4;;;;;;;18.56;80.89453;95161.08;;;;
2022/06/23 05:07:13;;;;;;;14.25;7.4;;;;;;;18.56;80.89453;95161.08;;;;
2022/06/23 05:08:23;;;;;;;14.25;7.4;;;;;;;18.56;80.89453;95161.08;;;;
2022/06/23 05:09:27;;;;;;;14.25;7.4;;;;;;;18.56;80.89453;95161.08;;;;
2022/06/23 05:10:32;;;;;;;14.25;7.4;;;;;;;18.56;80.89453;95161.08;;;;
2022/06/23 05:11:37;;;;;;;14.25;7.4;;;;;;;18.56;80.89453;95161.08;;;;
2022/06/23 05:12:44;;;;;;;14.25;7.4;;;;;;;18.56;80.89453;95161.08;;;;
2022/06/23 05:13:52;;;;;;;14.25;7.4;;;;;;;18.56;80.89453;95161.08;;;;
2022/06/23 05:14:57;;;;;;;12.05;7;;;;;;;18.85;80.60645;95170.23;;;;
2022/06/23 05:16:05;;;;;;;12.05;7;;;;;;;18.85;80.60645;95170.23;;;;
2022/06/23 05:17:09;;;;;;;12.05;7;;;;;;;18.85;80.60645;95170.23;;;;
2022/06/23 05:18:17;;;;;;;12.05;7;;;;;;;18.85;80.60645;95170.23;;;;
2022/06/23 05:19:23;;;;;;;12.05;7;;;;;;;18.85;80.60645;95170.23;;;;
2022/06/23 05:20:27;;;;;;;12.05;7;;;;;;;18.85;80.60645;95170.23;;;;
2022/06/23 05:21:31;;;;;;;12.05;7;;;;;;;18.85;80.60645;95170.23;;;;
2022/06/23 05:22:38;;;;;;;12.05;7;;;;;;;18.85;80.60645;95170.23;;;;
2022/06/23 05:23:45;;;;;;;12.05;7;;;;;;;18.85;80.60645;95170.23;;;;
2022/06/23 05:24:51;;;;;;;12.05;7;;;;;;;18.85;80.60645;95170.23;;;;
2022/06/23 05:25:53;;;;;;;10.35;6.35;;;;;;;19.24;80.27246;95161.96;;;;
2022/06/23 05:27:03;;;;;;;10.35;6.35;;;;;;;19.24;80.27246;95161.96;;;;
2022/06/23 05:28:12;;;;;;;10.35;6.35;;;;;;;19.24;80.27246;95161.96;;;;
2022/06/23 05:29:17;;;;;;;10.35;6.35;;;;;;;19.24;80.27246;95161.96;;;;
2022/06/23 05:30:23;;;;;;;10.35;6.35;;;;;;;19.24;80.27246;95161.96;;;;
2022/06/23 05:31:28;;;;;;;10.35;6.35;;;;;;;19.24;80.27246;95161.96;;;;
2022/06/23 05:32:33;;;;;;;10.35;6.35;;;;;;;19.24;80.27246;95161.96;;;;
2022/06/23 05:33:39;;;;;;;10.35;6.35;;;;;;;19.24;80.27246;95161.96;;;;
2022/06/23 05:34:45;;;;;;;10.35;6.35;;;;;;;19.24;80.27246;95161.96;;;;
2022/06/23 05:35:50;;;;;;;12.8;7.299999;;;;;;;19.59;79.77539;95165.2;;;;
2022/06/23 05:36:56;;;;;;;12.8;7.299999;;;;;;;19.59;79.77539;95165.2;;;;
2022/06/23 05:38:06;;;;;;;12.8;7.299999;;;;;;;19.59;79.77539;95165.2;;;;
2022/06/23 05:39:15;;;;;;;12.8;7.299999;;;;;;;19.59;79.77539;95165.2;;;;
2022/06/23 05:40:21;;;;;;;12.8;7.299999;;;;;;;19.59;79.77539;95165.2;;;;
2022/06/23 05:41:28;;;;;;;12.8;7.299999;;;;;;;19.59;79.77539;95165.2;;;;
2022/06/23 05:42:33;;;;;;;12.8;7.299999;;;;;;;19.59;79.77539;95165.2;;;;
2022/06/23 05:43:40;;;;;;;12.8;7.299999;;;;;;;19.59;79.77539;95165.2;;;;
2022/06/23 05:44:42;;;;;;;12.8;7.299999;;;;;;;19.59;79.77539;95165.2;;;;
2022/06/23 05:45:49;;;;;;;12.8;7.299999;;;;;;;19.59;79.77539;95165.2;;;;
2022/06/23 05:46:53;;;;;;;12.9;6.500001;;;;;;;20.06;79.25684;95169.65;;;;
2022/06/23 05:47:57;;;;;;;12.9;6.500001;;;;;;;20.06;79.25684;95169.65;;;;
2022/06/23 05:49:00;;;;;;;12.9;6.500001;;;;;;;20.06;79.25684;95169.65;;;;
2022/06/23 05:50:11;;;;;;;12.9;6.500001;;;;;;;20.06;79.25684;95169.65;;;;
2022/06/23 05:51:16;;;;;;;12.9;6.500001;;;;;;;20.06;79.25684;95169.65;;;;
2022/06/23 05:52:22;;;;;;;12.9;6.500001;;;;;;;20.06;79.25684;95169.65;;;;
2022/06/23 05:53:27;;;;;;;12.9;6.500001;;;;;;;20.06;79.25684;95169.65;;;;
2022/06/23 05:54:31;;;;;;;12.9;6.500001;;;;;;;20.06;79.25684;95169.65;;;;
2022/06/23 05:55:37;;;;;;;12.9;6.500001;;;;;;;20.06;79.25684;95169.65;;;;
2022/06/23 05:56:44;;;;;;;12.9;6.500001;;;;;;;20.06;79.25684;95169.65;;;;
2022/06/23 05:57:51;;;;;;;10.95;5.75;;;;;;;20.41;78.53809;95161.08;;;;
2022/06/23 05:58:57;;;;;;;10.95;5.75;;;;;;;20.41;78.53809;95161.08;;;;
2022/06/23 06:00:03;;;;;;;10.95;5.75;;;;;;;20.41;78.53809;95161.08;;;;
2022/06/23 06:01:16;;;;;;;10.95;5.75;;;;;;;20.41;78.53809;95161.08;;;;
2022/06/23 06:02:24;;;;;;;10.95;5.75;;;;;;;20.41;78.53809;95161.08;;;;
2022/06/23 06:03:29;;;;;;;10.95;5.75;;;;;;;20.41;78.53809;95161.08;;;;
2022/06/23 06:04:38;;;;;;;10.95;5.75;;;;;;;20.41;78.53809;95161.08;;;;
2022/06/23 06:05:48;;;;;;;10.95;5.75;;;;;;;20.41;78.53809;95161.08;;;;
2022/06/23 06:06:53;;;;;;;10.95;5.75;;;;;;;20.41;78.53809;95161.08;;;;
2022/06/23 06:07:54;;;;;;;10.6;5.6;;;;;;;20.87;77.68359;95162.98;;;;
2022/06/23 06:10:00;;;;;;;10.6;5.6;;;;;;;20.87;77.68359;95162.98;;;;
2022/06/23 06:11:03;;;;;;;10.6;5.6;;;;;;;20.87;77.68359;95162.98;;;;
2022/06/23 06:12:04;;;;;;;10.6;5.6;;;;;;;20.87;77.68359;95162.98;;;;
2022/06/23 06:13:12;;;;;;;10.6;5.6;;;;;;;20.87;77.68359;95162.98;;;;
2022/06/23 06:14:15;;;;;;;10.6;5.6;;;;;;;20.87;77.68359;95162.98;;;;
2022/06/23 06:15:20;;;;;;;10.6;5.6;;;;;;;20.87;77.68359;95162.98;;;;
2022/06/23 06:16:24;;;;;;;10.6;5.6;;;;;;;20.87;77.68359;95162.98;;;;
2022/06/23 06:17:25;;;;;;;10.6;5.6;;;;;;;20.87;77.68359;95162.98;;;;
2022/06/23 06:18:28;;;;;;;12.95;5.95;;;;;;;21.38;76.80176;95170.98;;;;
2022/06/23 06:19:33;;;;;;;12.95;5.95;;;;;;;21.38;76.80176;95170.98;;;;
2022/06/23 06:20:34;;;;;;;12.95;5.95;;;;;;;21.38;76.80176;95170.98;;;;
2022/06/23 06:21:36;;;;;;;12.95;5.95;;;;;;;21.38;76.80176;95170.98;;;;
2022/06/23 06:22:36;;;;;;;12.95;5.95;;;;;;;21.38;76.80176;95170.98;;;;
2022/06/23 06:23:48;;;;;;;12.95;5.95;;;;;;;21.38;76.80176;95170.98;;;;
2022/06/23 06:24:55;;;;;;;12.95;5.95;;;;;;;21.38;76.80176;95170.98;;;;